Matlock, WA

12:32 AM PDT on April 27, 2015 (GMT -0700)
KWAELMA7 | | Change Station
CLOSE
Current Station
Personal Weather Station
Location: Elma, WA
Elevation: 203 ft
Nearby Weather Stations

Elev 203 ft 47.01 °N, 123.42 °W | Updated 1 minute ago

Rain
Rain
50.0 °F
Feels Like 50.0 °F
N
2.7
Wind Variable Wind from NNE

Today
High -- | Low -- °F
--% Chance of Precip.
Yesterday
High -- | Low -- °F
Precip. -- in
6:04 AM 8:19 PM
Waxing Gibbous, 62% visible
Pressure 30.24 in
Visibility 2.0 miles
Clouds Overcast 1800 ft
Dew Point 47 °F
Humidity 89%
Rainfall 0.00 in
Snow Depth Not available.
UV 0 out of 12
Pollen 8.70 out of 12
Air Quality Not available.
Flu Activity Regional
SPECI KSHN 270707Z AUTO 00000KT 2SM -RA BR OVC018 09/09 A3024 RMK AO2 RAB04 P0000 T00940089

More Conditions Fewer Conditions

Pressure 30.24 in
Visibility 2.0 miles
Clouds Overcast 1800 ft
Dew Point 47 °F
Humidity 89%
Rainfall 0.00 in
Snow Depth Not available.
UV 0 out of 12
Pollen 8.70 out of 12
Air Quality Not available.
Flu Activity Regional
SPECI KSHN 270707Z AUTO 00000KT 2SM -RA BR OVC018 09/09 A3024 RMK AO2 RAB04 P0000 T00940089

More Conditions Fewer Conditions

10-Day Weather Forecast

Almanac

Astronomy

Apr. 27, 2015 Rise Set
Actual Time
Civil Twilight
Nautical Twilight
Astronomical Twilight
Moon
Length of Visible Light
Length of Day
Tomorrow will be .
, % of the Moon is Illuminated

Today's Extremes

State Highs State Lows

Community

WunderPhotos

Upload Photos

1,817,276 photos uploaded!

WunderBlogs® & News

Nearby

Air Quality

  Air Quality AQ Index Pollutant
Not available.

Snow Depth

Station Depth Elevation

Earthquake Activity

City Distance Mag. Time & Date
Minimum magnitude displayed is 2.5.

Coastal Water Temperatures

Place Temperature

Stations

Nearby Weather Stations

Station Location Temp. Windchill Dew Point Humidity Wind Precip. Elev Updated Type